createdAt,value
2022-12-09T00:00:47.407Z,0
2022-12-09T00:01:47.390Z,0
2022-12-09T00:02:48.157Z,0
2022-12-09T00:03:48.063Z,0
2022-12-09T00:04:48.298Z,0
2022-12-09T00:05:47.018Z,0
2022-12-09T00:06:47.610Z,0
2022-12-09T00:07:47.866Z,0
2022-12-09T00:08:47.408Z,0
2022-12-09T00:09:47.229Z,0
2022-12-09T00:10:47.398Z,0
2022-12-09T00:11:47.400Z,0
2022-12-09T00:12:47.853Z,0
2022-12-09T00:13:47.390Z,0
2022-12-09T00:14:47.141Z,0
2022-12-09T00:15:48.170Z,0
2022-12-09T00:16:48.539Z,0
2022-12-09T00:17:47.573Z,0
2022-12-09T00:18:47.454Z,0
2022-12-09T00:19:47.890Z,0
2022-12-09T00:20:47.989Z,0
2022-12-09T00:21:47.345Z,0
2022-12-09T00:22:47.513Z,0
2022-12-09T00:23:47.779Z,0
2022-12-09T00:24:48.037Z,0
2022-12-09T00:25:47.430Z,0
2022-12-09T00:26:47.829Z,0
2022-12-09T00:27:48.409Z,0
2022-12-09T00:28:47.591Z,0
2022-12-09T00:29:48.096Z,0
2022-12-09T00:30:47.922Z,0
2022-12-09T00:31:48.388Z,0
2022-12-09T00:32:48.279Z,0
2022-12-09T00:33:47.887Z,0
2022-12-09T00:34:47.561Z,0
2022-12-09T00:35:47.870Z,0
2022-12-09T00:36:47.992Z,0
2022-12-09T00:37:47.387Z,0
2022-12-09T00:38:47.902Z,0
2022-12-09T00:39:47.864Z,0
2022-12-09T00:40:47.840Z,0
2022-12-09T00:41:48.223Z,0
2022-12-09T00:42:47.754Z,0
2022-12-09T00:43:47.849Z,0
2022-12-09T00:44:48.273Z,0
2022-12-09T00:45:48.371Z,0
2022-12-09T00:46:48.428Z,0
2022-12-09T00:47:48.638Z,0
2022-12-09T00:48:48.150Z,0
2022-12-09T00:49:48.361Z,0
2022-12-09T00:50:47.871Z,0
2022-12-09T00:51:47.958Z,0
2022-12-09T00:52:47.896Z,0
2022-12-09T00:53:48.150Z,0
2022-12-09T00:54:48.792Z,0
2022-12-09T00:55:48.658Z,0
2022-12-09T00:56:47.763Z,0
2022-12-09T00:57:47.499Z,0
2022-12-09T00:58:48.318Z,0
2022-12-09T00:59:47.942Z,0
2022-12-09T01:00:48.732Z,0
2022-12-09T01:01:48.693Z,0
2022-12-09T01:02:48.749Z,0
2022-12-09T01:03:48.919Z,0
2022-12-09T01:04:48.987Z,0
2022-12-09T01:05:48.289Z,0
2022-12-09T01:06:48.069Z,0
2022-12-09T01:07:47.996Z,0
2022-12-09T01:08:50.975Z,0
2022-12-09T01:09:48.336Z,0
2022-12-09T01:10:48.590Z,0
2022-12-09T01:11:49.031Z,0
2022-12-09T01:12:48.402Z,0
2022-12-09T01:13:48.342Z,0
2022-12-09T01:14:48.137Z,0
2022-12-09T01:15:49.016Z,0
2022-12-09T01:16:49.350Z,0
2022-12-09T01:17:49.225Z,0
2022-12-09T01:18:48.258Z,0
2022-12-09T01:19:48.783Z,0
2022-12-09T01:20:48.490Z,0
2022-12-09T01:21:48.247Z,0
2022-12-09T01:22:48.458Z,0
2022-12-09T01:23:48.697Z,0
2022-12-09T01:24:48.537Z,0
2022-12-09T01:25:48.639Z,0
2022-12-09T01:26:48.271Z,0
2022-12-09T01:27:48.746Z,0
2022-12-09T01:28:48.565Z,0
2022-12-09T01:29:48.904Z,0
2022-12-09T01:30:48.508Z,0
2022-12-09T01:31:49.261Z,0
2022-12-09T01:32:49.681Z,0
2022-12-09T01:33:49.243Z,0
2022-12-09T01:34:48.272Z,0
2022-12-09T01:35:48.617Z,0
2022-12-09T01:36:49.005Z,0
2022-12-09T01:37:49.136Z,0
2022-12-09T01:38:48.577Z,0
2022-12-09T01:39:48.434Z,0
2022-12-09T01:40:48.348Z,0
2022-12-09T01:41:49.353Z,0
2022-12-09T01:42:48.445Z,0
2022-12-09T01:43:48.564Z,0
2022-12-09T01:44:49.094Z,0
2022-12-09T01:45:49.087Z,0
2022-12-09T01:46:49.305Z,0
2022-12-09T01:47:49.859Z,0
2022-12-09T01:48:49.382Z,0
2022-12-09T01:49:49.445Z,0
2022-12-09T01:50:48.882Z,0
2022-12-09T01:51:49.687Z,0
2022-12-09T01:52:48.297Z,0
2022-12-09T01:53:48.992Z,0
2022-12-09T01:54:49.143Z,0
2022-12-09T01:55:48.892Z,0
2022-12-09T01:56:48.838Z,0
2022-12-09T01:57:49.066Z,0
2022-12-09T01:58:49.004Z,0
2022-12-09T01:59:49.200Z,0
2022-12-09T02:00:49.464Z,0
2022-12-09T02:01:49.124Z,0
2022-12-09T02:02:49.716Z,0
2022-12-09T02:03:50.418Z,0
2022-12-09T02:04:49.901Z,0
2022-12-09T02:05:49.193Z,0
2022-12-09T02:06:48.887Z,0
2022-12-09T02:07:49.550Z,0
2022-12-09T02:08:50.011Z,0
2022-12-09T02:09:49.395Z,0
2022-12-09T02:10:49.471Z,0
2022-12-09T02:11:49.908Z,0
2022-12-09T02:12:49.107Z,0
2022-12-09T02:13:49.428Z,0
2022-12-09T02:14:49.640Z,0
2022-12-09T02:15:49.650Z,0
2022-12-09T02:16:50.522Z,0
2022-12-09T02:17:50.170Z,0
2022-12-09T02:18:49.610Z,0
2022-12-09T02:19:49.459Z,0
2022-12-09T02:20:49.901Z,0
2022-12-09T02:21:49.585Z,0
2022-12-09T02:22:49.998Z,0
2022-12-09T02:23:49.065Z,0
2022-12-09T02:24:49.842Z,0
2022-12-09T02:25:49.713Z,0
2022-12-09T02:26:50.154Z,0
2022-12-09T02:27:49.741Z,0
2022-12-09T02:28:49.482Z,0
2022-12-09T02:29:50.006Z,0
2022-12-09T02:30:49.742Z,0
2022-12-09T02:31:49.532Z,0
2022-12-09T02:32:50.522Z,0
2022-12-09T02:33:49.618Z,0
2022-12-09T02:34:49.919Z,0
2022-12-09T02:35:49.847Z,0
2022-12-09T02:36:49.907Z,0
2022-12-09T02:37:49.816Z,0
2022-12-09T02:38:49.403Z,0
2022-12-09T02:39:49.967Z,0
2022-12-09T02:40:49.076Z,0
2022-12-09T02:41:50.174Z,0
2022-12-09T02:42:50.114Z,0
2022-12-09T02:43:56.816Z,0
2022-12-09T02:44:49.544Z,0
2022-12-09T02:45:49.978Z,0
2022-12-09T02:46:50.420Z,0
2022-12-09T02:47:49.781Z,0
2022-12-09T02:48:50.729Z,0
2022-12-09T02:49:49.914Z,0
2022-12-09T02:50:50.059Z,0
2022-12-09T02:51:50.076Z,0
2022-12-09T02:52:50.018Z,0
2022-12-09T02:53:49.421Z,0
2022-12-09T02:54:50.095Z,0
2022-12-09T02:55:50.538Z,0
2022-12-09T02:56:49.496Z,0
2022-12-09T02:57:50.057Z,0
2022-12-09T02:58:50.377Z,0
2022-12-09T02:59:50.071Z,0
2022-12-09T03:00:49.998Z,0
2022-12-09T03:01:51.095Z,0
2022-12-09T03:02:50.590Z,0
2022-12-09T03:03:50.937Z,0
2022-12-09T03:04:50.584Z,0
2022-12-09T03:05:50.221Z,0
2022-12-09T03:06:50.345Z,0
2022-12-09T03:07:50.597Z,0
2022-12-09T03:08:51.001Z,0
2022-12-09T03:09:50.544Z,0
2022-12-09T03:10:50.707Z,0
2022-12-09T03:11:50.137Z,0
2022-12-09T03:12:49.864Z,0
2022-12-09T03:13:49.970Z,0
2022-12-09T03:14:50.204Z,0
2022-12-09T03:15:50.716Z,0
2022-12-09T03:16:50.200Z,0
2022-12-09T03:17:50.227Z,0
2022-12-09T03:18:50.012Z,0
2022-12-09T03:19:49.719Z,0
2022-12-09T03:20:50.417Z,0
2022-12-09T03:21:50.052Z,0
2022-12-09T03:22:50.003Z,0
2022-12-09T03:23:50.557Z,0
2022-12-09T03:24:50.312Z,0
2022-12-09T03:25:50.736Z,0
2022-12-09T03:26:50.965Z,0
2022-12-09T03:27:50.544Z,0
2022-12-09T03:28:50.099Z,0
2022-12-09T03:29:50.404Z,0
2022-12-09T03:30:50.442Z,0
2022-12-09T03:31:50.814Z,0
2022-12-09T03:32:51.551Z,0
2022-12-09T03:33:51.415Z,0
2022-12-09T03:34:50.363Z,0
2022-12-09T03:35:51.263Z,0
2022-12-09T03:36:50.692Z,0
2022-12-09T03:37:50.822Z,0
2022-12-09T03:38:50.348Z,0
2022-12-09T03:39:50.729Z,0
2022-12-09T03:40:50.818Z,0
2022-12-09T03:41:50.973Z,0
2022-12-09T03:42:50.498Z,0
2022-12-09T03:43:50.717Z,0
2022-12-09T03:44:51.093Z,0
2022-12-09T03:45:51.122Z,0
2022-12-09T03:46:51.628Z,0
2022-12-09T03:47:51.360Z,0
2022-12-09T03:48:51.320Z,0
2022-12-09T03:49:51.294Z,0
2022-12-09T03:50:50.478Z,0
2022-12-09T03:51:50.493Z,0
2022-12-09T03:52:51.056Z,0
2022-12-09T03:53:50.919Z,0
2022-12-09T03:54:51.327Z,0
2022-12-09T03:55:50.976Z,0
2022-12-09T03:56:51.377Z,0
2022-12-09T03:57:50.484Z,0
2022-12-09T03:58:50.447Z,0
2022-12-09T03:59:50.794Z,0
2022-12-09T04:00:51.983Z,0
2022-12-09T04:01:51.382Z,0
2022-12-09T04:02:51.603Z,0
2022-12-09T04:03:52.090Z,0
2022-12-09T04:04:51.247Z,0
2022-12-09T04:05:50.479Z,0
2022-12-09T04:06:51.101Z,0
2022-12-09T04:07:51.752Z,0
2022-12-09T04:08:52.008Z,0
2022-12-09T04:09:51.544Z,0
2022-12-09T04:10:50.921Z,0
2022-12-09T04:11:51.101Z,0
2022-12-09T04:12:52.092Z,0
2022-12-09T04:13:51.134Z,0
2022-12-09T04:14:50.868Z,0
2022-12-09T04:15:50.803Z,0
2022-12-09T04:16:51.579Z,0
2022-12-09T04:17:52.174Z,0
2022-12-09T04:18:51.542Z,0
2022-12-09T04:19:51.764Z,0
2022-12-09T04:20:51.231Z,0
2022-12-09T04:21:51.566Z,0
2022-12-09T04:22:51.666Z,0
2022-12-09T04:23:51.143Z,0
2022-12-09T04:24:51.403Z,0
2022-12-09T04:25:51.185Z,0
2022-12-09T04:26:50.799Z,0
2022-12-09T04:27:51.066Z,0
2022-12-09T04:28:52.071Z,0
2022-12-09T04:29:51.499Z,0
2022-12-09T04:30:52.112Z,0
2022-12-09T04:31:51.275Z,0
2022-12-09T04:32:51.783Z,0
2022-12-09T04:33:51.486Z,0
2022-12-09T04:34:51.843Z,0
2022-12-09T04:35:51.096Z,0
2022-12-09T04:36:51.476Z,0
2022-12-09T04:37:51.111Z,0
2022-12-09T04:38:51.856Z,0
2022-12-09T04:39:50.848Z,0
2022-12-09T04:40:51.545Z,0
2022-12-09T04:41:51.534Z,0
2022-12-09T04:42:51.960Z,0
2022-12-09T04:43:51.268Z,0
2022-12-09T04:44:51.509Z,0
2022-12-09T04:45:51.699Z,0
2022-12-09T04:46:51.947Z,0
2022-12-09T04:47:51.879Z,0
2022-12-09T04:48:52.056Z,0
2022-12-09T04:49:51.786Z,0
2022-12-09T04:50:51.909Z,0
2022-12-09T04:51:51.662Z,0
2022-12-09T04:52:50.865Z,0
2022-12-09T04:53:51.960Z,0
2022-12-09T04:54:51.478Z,0
2022-12-09T04:55:51.608Z,0
2022-12-09T04:56:51.991Z,0
2022-12-09T04:57:52.137Z,0
2022-12-09T04:58:51.856Z,0
2022-12-09T04:59:51.135Z,0
2022-12-09T05:00:52.151Z,0
2022-12-09T05:01:52.291Z,0
2022-12-09T05:02:52.265Z,0
2022-12-09T05:03:52.478Z,0
2022-12-09T05:04:53.351Z,0
2022-12-09T05:05:52.166Z,0
2022-12-09T05:06:52.130Z,0
2022-12-09T05:07:53.472Z,0
2022-12-09T05:08:52.716Z,0
2022-12-09T05:09:53.078Z,0
2022-12-09T05:10:53.235Z,0
2022-12-09T05:11:51.851Z,0
2022-12-09T05:12:51.892Z,0
2022-12-09T05:13:52.568Z,0
2022-12-09T05:14:51.827Z,0
2022-12-09T05:15:52.647Z,0
2022-12-09T05:16:53.075Z,0
2022-12-09T05:17:53.319Z,0
2022-12-09T05:18:53.213Z,0
2022-12-09T05:19:52.543Z,0
2022-12-09T05:20:51.822Z,0
2022-12-09T05:21:51.972Z,0
2022-12-09T05:22:52.589Z,0
2022-12-09T05:23:52.946Z,0
2022-12-09T05:24:53.139Z,0
2022-12-09T05:25:52.401Z,0
2022-12-09T05:26:52.471Z,0
2022-12-09T05:27:51.941Z,0
2022-12-09T05:28:53.096Z,0
2022-12-09T05:29:52.630Z,0
2022-12-09T05:30:53.967Z,0
2022-12-09T05:31:52.728Z,0
2022-12-09T05:32:53.077Z,0
2022-12-09T05:33:53.314Z,0
2022-12-09T05:34:52.245Z,0
2022-12-09T05:36:00.149Z,0
2022-12-09T05:36:52.473Z,0
2022-12-09T05:37:52.219Z,0
2022-12-09T05:38:52.886Z,0
2022-12-09T05:39:52.536Z,0
2022-12-09T05:40:53.166Z,0
2022-12-09T05:41:53.350Z,0
2022-12-09T05:42:53.490Z,0
2022-12-09T05:43:52.627Z,0
2022-12-09T05:44:53.135Z,0
2022-12-09T05:45:52.933Z,0
2022-12-09T05:46:53.036Z,0
2022-12-09T05:47:53.058Z,0
2022-12-09T05:48:54.015Z,0
2022-12-09T05:49:54.051Z,0
2022-12-09T05:50:53.252Z,0
2022-12-09T05:51:53.215Z,0
2022-12-09T05:52:52.880Z,0
2022-12-09T05:53:53.063Z,0
2022-12-09T05:54:53.321Z,0
2022-12-09T05:55:53.336Z,0
2022-12-09T05:56:56.623Z,0
2022-12-09T05:57:52.854Z,0
2022-12-09T05:58:52.159Z,0
2022-12-09T05:59:53.161Z,0
2022-12-09T06:00:53.207Z,0
2022-12-09T06:01:53.321Z,0
2022-12-09T06:02:53.582Z,0
2022-12-09T06:03:53.980Z,0
2022-12-09T06:04:53.923Z,0
2022-12-09T06:05:54.274Z,0
2022-12-09T06:06:53.534Z,0
2022-12-09T06:07:53.948Z,0
2022-12-09T06:08:53.449Z,0
2022-12-09T06:09:53.321Z,0
2022-12-09T06:10:53.723Z,0
2022-12-09T06:11:53.004Z,0
2022-12-09T06:12:52.785Z,0
2022-12-09T06:13:53.591Z,0
2022-12-09T06:14:53.251Z,0
2022-12-09T06:15:53.341Z,0
2022-12-09T06:16:53.904Z,0
2022-12-09T06:17:53.727Z,0
2022-12-09T06:18:54.309Z,0
2022-12-09T06:19:53.305Z,0
2022-12-09T06:20:53.516Z,0
2022-12-09T06:21:53.374Z,0
2022-12-09T06:22:53.535Z,0
2022-12-09T06:23:53.623Z,0
2022-12-09T06:24:59.730Z,0
2022-12-09T06:25:53.777Z,0
2022-12-09T06:26:53.856Z,0
2022-12-09T06:27:53.340Z,0
2022-12-09T06:28:53.651Z,0
2022-12-09T06:29:52.936Z,0
2022-12-09T06:30:53.962Z,0
2022-12-09T06:31:53.567Z,0
2022-12-09T06:32:54.295Z,0
2022-12-09T06:34:04.800Z,0
2022-12-09T06:34:53.224Z,0
2022-12-09T06:35:54.190Z,0
2022-12-09T06:36:54.245Z,0
2022-12-09T06:37:53.502Z,0
2022-12-09T06:38:53.534Z,0
2022-12-09T06:39:53.937Z,0
2022-12-09T06:40:53.282Z,0
2022-12-09T06:41:52.902Z,0
2022-12-09T06:42:53.738Z,0
2022-12-09T06:43:54.388Z,0
2022-12-09T06:44:54.529Z,0
2022-12-09T06:45:54.160Z,0
2022-12-09T06:46:53.226Z,0
2022-12-09T06:47:54.321Z,0
2022-12-09T06:48:54.857Z,0
2022-12-09T06:49:55.306Z,0
2022-12-09T06:50:53.933Z,0
2022-12-09T06:51:54.000Z,0
2022-12-09T06:52:54.506Z,0
2022-12-09T06:53:54.339Z,0
2022-12-09T06:54:53.747Z,0
2022-12-09T06:55:53.590Z,0
2022-12-09T06:56:53.820Z,0
2022-12-09T06:57:54.042Z,0
2022-12-09T06:58:54.283Z,0
2022-12-09T06:59:53.777Z,0
2022-12-09T07:00:53.766Z,0
2022-12-09T07:01:54.531Z,0
2022-12-09T07:02:54.503Z,0
2022-12-09T07:03:54.612Z,0
2022-12-09T07:04:55.212Z,0
2022-12-09T07:05:54.513Z,0
2022-12-09T07:06:54.503Z,0
2022-12-09T07:07:54.968Z,0
2022-12-09T07:08:54.857Z,0
2022-12-09T07:09:54.869Z,0
2022-12-09T07:11:02.104Z,0
2022-12-09T07:11:54.187Z,0
2022-12-09T07:12:54.226Z,0
2022-12-09T07:13:54.155Z,0
2022-12-09T07:14:54.131Z,0
2022-12-09T07:15:53.850Z,0
2022-12-09T07:16:54.533Z,0
2022-12-09T07:17:54.373Z,0
2022-12-09T07:18:53.937Z,0
2022-12-09T07:19:54.347Z,0
2022-12-09T07:20:54.683Z,0
2022-12-09T07:21:53.830Z,4
2022-12-09T07:22:53.833Z,4
2022-12-09T07:23:54.662Z,4
2022-12-09T07:24:54.167Z,4
2022-12-09T07:25:54.014Z,4
2022-12-09T07:26:54.622Z,4
2022-12-09T07:27:54.079Z,0
2022-12-09T07:28:54.488Z,0
2022-12-09T07:29:54.217Z,0
2022-12-09T07:30:53.836Z,0
2022-12-09T07:31:55.017Z,4
2022-12-09T07:32:55.272Z,4
2022-12-09T07:33:55.386Z,4
2022-12-09T07:34:54.949Z,4
2022-12-09T07:35:54.648Z,4
2022-12-09T07:36:54.721Z,4
2022-12-09T07:37:54.076Z,4
2022-12-09T07:38:54.477Z,4
2022-12-09T07:39:54.161Z,4
2022-12-09T07:40:54.198Z,4
2022-12-09T07:41:53.945Z,4
2022-12-09T07:43:01.916Z,4
2022-12-09T07:43:55.127Z,4
2022-12-09T07:44:54.146Z,8
2022-12-09T07:45:54.971Z,8
2022-12-09T07:46:55.739Z,4
2022-12-09T07:47:54.749Z,8
2022-12-09T07:48:55.442Z,4
2022-12-09T07:49:55.509Z,8
2022-12-09T07:50:53.915Z,8
2022-12-09T07:51:54.851Z,8
2022-12-09T07:52:54.306Z,8
2022-12-09T07:53:55.590Z,12
2022-12-09T07:54:54.129Z,8
2022-12-09T07:55:54.342Z,8
2022-12-09T07:56:55.315Z,8
2022-12-09T07:57:54.522Z,8
2022-12-09T07:58:54.791Z,12
2022-12-09T07:59:54.194Z,8
2022-12-09T08:00:54.679Z,8
2022-12-09T08:01:54.929Z,8
2022-12-09T08:02:55.377Z,8
2022-12-09T08:03:56.592Z,12
2022-12-09T08:04:54.603Z,12
2022-12-09T08:05:55.816Z,12
2022-12-09T08:06:55.991Z,12
2022-12-09T08:07:56.143Z,12
2022-12-09T08:08:55.801Z,12
2022-12-09T08:09:55.651Z,12
2022-12-09T08:10:55.767Z,12
2022-12-09T08:11:55.005Z,12
2022-12-09T08:12:55.356Z,12
2022-12-09T08:13:55.128Z,12
2022-12-09T08:14:54.180Z,12
2022-12-09T08:15:54.752Z,12
2022-12-09T08:16:55.686Z,16
2022-12-09T08:17:55.920Z,16
2022-12-09T08:18:55.484Z,12
2022-12-09T08:19:55.092Z,12
2022-12-09T08:20:55.416Z,12
2022-12-09T08:22:01.805Z,12
2022-12-09T08:22:55.031Z,16
2022-12-09T08:23:54.968Z,16
2022-12-09T08:24:55.815Z,12
2022-12-09T08:25:55.247Z,16
2022-12-09T08:26:55.782Z,16
2022-12-09T08:27:54.967Z,16
2022-12-09T08:28:55.873Z,16
2022-12-09T08:29:55.604Z,16
2022-12-09T08:30:55.792Z,16
2022-12-09T08:31:55.231Z,20
2022-12-09T08:32:55.763Z,16
2022-12-09T08:33:54.907Z,20
2022-12-09T08:34:55.123Z,20
2022-12-09T08:35:55.359Z,20
2022-12-09T08:37:02.359Z,16
2022-12-09T08:37:54.636Z,20
2022-12-09T08:38:54.698Z,20
2022-12-09T08:39:54.596Z,16
2022-12-09T08:40:55.429Z,20
2022-12-09T08:41:55.168Z,20
2022-12-09T08:42:55.554Z,20
2022-12-09T08:43:55.090Z,20
2022-12-09T08:45:02.880Z,20
2022-12-09T08:45:56.057Z,24
2022-12-09T08:46:56.894Z,24
2022-12-09T08:47:56.338Z,20
2022-12-09T08:48:56.487Z,24
2022-12-09T08:49:56.630Z,20
2022-12-09T08:50:54.884Z,24
2022-12-09T08:51:55.461Z,24
2022-12-09T08:52:55.986Z,28
2022-12-09T08:53:54.835Z,32
2022-12-09T08:54:55.586Z,28
2022-12-09T08:55:55.223Z,28
2022-12-09T08:56:56.371Z,28
2022-12-09T08:57:56.006Z,28
2022-12-09T08:58:55.559Z,32
2022-12-09T08:59:55.775Z,28
2022-12-09T09:00:56.195Z,24
2022-12-09T09:01:56.349Z,28
2022-12-09T09:02:56.543Z,28
2022-12-09T09:03:56.540Z,28
2022-12-09T09:04:56.638Z,28
2022-12-09T09:05:57.175Z,28
2022-12-09T09:06:57.082Z,36
2022-12-09T09:07:56.017Z,36
2022-12-09T09:08:55.654Z,36
2022-12-09T09:09:55.750Z,32
2022-12-09T09:10:56.190Z,32
2022-12-09T09:11:56.650Z,32
2022-12-09T09:12:56.204Z,32
2022-12-09T09:13:55.383Z,32
2022-12-09T09:14:55.541Z,36
2022-12-09T09:15:56.333Z,36
2022-12-09T09:16:57.103Z,36
2022-12-09T09:18:00.544Z,36
2022-12-09T09:18:57.419Z,36
2022-12-09T09:19:56.979Z,36
2022-12-09T09:20:56.241Z,32
2022-12-09T09:21:56.474Z,36
2022-12-09T09:23:03.228Z,36
2022-12-09T09:23:55.749Z,36
2022-12-09T09:24:56.251Z,36
2022-12-09T09:25:56.124Z,32
2022-12-09T09:26:56.855Z,32
2022-12-09T09:27:56.015Z,32
2022-12-09T09:28:55.741Z,32
2022-12-09T09:29:56.288Z,28
2022-12-09T09:30:56.586Z,32
2022-12-09T09:31:57.450Z,32
2022-12-09T09:32:56.923Z,28
2022-12-09T09:33:57.397Z,32
2022-12-09T09:34:56.857Z,32
2022-12-09T09:35:55.509Z,36
2022-12-09T09:36:56.864Z,32
2022-12-09T09:37:55.523Z,32
2022-12-09T09:38:55.957Z,32
2022-12-09T09:39:56.887Z,32
2022-12-09T09:40:56.808Z,28
2022-12-09T09:41:56.328Z,28
2022-12-09T09:42:56.235Z,32
2022-12-09T09:43:56.285Z,28
2022-12-09T09:44:56.930Z,32
2022-12-09T09:45:57.196Z,32
2022-12-09T09:46:57.510Z,32
2022-12-09T09:47:56.717Z,32
2022-12-09T09:48:57.447Z,32
2022-12-09T09:49:57.201Z,32
2022-12-09T09:50:56.427Z,36
2022-12-09T09:51:57.012Z,32
2022-12-09T09:52:56.225Z,32
2022-12-09T09:53:57.072Z,36
2022-12-09T09:54:57.058Z,40
2022-12-09T09:55:58.270Z,40
2022-12-09T09:56:56.591Z,44
2022-12-09T09:57:56.248Z,48
2022-12-09T09:58:57.488Z,44
2022-12-09T09:59:56.592Z,44
2022-12-09T10:00:56.783Z,44
2022-12-09T10:01:57.125Z,44
2022-12-09T10:02:58.509Z,40
2022-12-09T10:03:58.603Z,40
2022-12-09T10:04:57.380Z,40
2022-12-09T10:05:57.728Z,36
2022-12-09T10:07:01.250Z,36
2022-12-09T10:07:57.435Z,36
2022-12-09T10:08:56.691Z,36
2022-12-09T10:09:57.620Z,32
2022-12-09T10:10:57.662Z,32
2022-12-09T10:11:57.648Z,32
2022-12-09T10:13:12.865Z,32
2022-12-09T10:13:57.865Z,36
2022-12-09T10:14:57.152Z,36
2022-12-09T10:15:57.640Z,36
2022-12-09T10:16:58.312Z,36
2022-12-09T10:17:57.913Z,36
2022-12-09T10:18:58.611Z,36
2022-12-09T10:19:57.007Z,36
2022-12-09T10:20:57.510Z,36
2022-12-09T10:21:57.249Z,36
2022-12-09T10:22:56.679Z,36
2022-12-09T10:23:57.481Z,48
2022-12-09T10:24:57.135Z,36
2022-12-09T10:25:57.493Z,36
2022-12-09T10:26:56.362Z,36
2022-12-09T10:27:56.917Z,36
2022-12-09T10:28:56.815Z,32
2022-12-09T10:29:57.687Z,32
2022-12-09T10:30:57.344Z,32
2022-12-09T10:31:57.559Z,36
2022-12-09T10:32:57.870Z,32
2022-12-09T10:33:58.600Z,36
2022-12-09T10:34:58.124Z,36
2022-12-09T10:35:56.925Z,32
2022-12-09T10:36:57.212Z,32
2022-12-09T10:37:57.105Z,32
2022-12-09T10:38:58.207Z,32
2022-12-09T10:39:56.860Z,32
2022-12-09T10:40:57.073Z,32
2022-12-09T10:41:57.157Z,32
2022-12-09T10:42:56.845Z,36
2022-12-09T10:43:57.311Z,32
2022-12-09T10:44:57.311Z,32
2022-12-09T10:46:28.350Z,32
2022-12-09T10:46:58.101Z,32
2022-12-09T10:47:57.364Z,32
2022-12-09T10:48:58.946Z,32
2022-12-09T10:49:58.449Z,32
2022-12-09T10:50:57.884Z,32
2022-12-09T10:51:58.104Z,32
2022-12-09T10:52:57.326Z,36
2022-12-09T10:53:57.708Z,32
2022-12-09T10:54:58.086Z,32
2022-12-09T10:55:57.403Z,32
2022-12-09T10:56:58.151Z,32
2022-12-09T10:57:57.675Z,32
2022-12-09T10:58:57.236Z,32
2022-12-09T10:59:58.607Z,32
2022-12-09T11:00:57.011Z,36
2022-12-09T11:01:58.617Z,32
2022-12-09T11:02:58.310Z,36
2022-12-09T11:03:57.934Z,32
2022-12-09T11:04:59.156Z,36
2022-12-09T11:05:57.386Z,32
2022-12-09T11:07:06.850Z,32
2022-12-09T11:07:59.560Z,28
2022-12-09T11:08:58.513Z,28
2022-12-09T11:09:59.084Z,28
2022-12-09T11:10:57.814Z,28
2022-12-09T11:11:57.678Z,28
2022-12-09T11:12:57.906Z,28
2022-12-09T11:13:57.671Z,28
2022-12-09T11:14:57.689Z,28
2022-12-09T11:15:58.461Z,24
2022-12-09T11:16:57.252Z,28
2022-12-09T11:18:04.272Z,28
2022-12-09T11:18:57.945Z,28
2022-12-09T11:19:57.848Z,28
2022-12-09T11:20:59.053Z,28
2022-12-09T11:21:58.442Z,24
2022-12-09T11:22:57.683Z,28
2022-12-09T11:24:07.670Z,24
2022-12-09T11:24:59.686Z,24
2022-12-09T11:25:57.712Z,24
2022-12-09T11:26:58.027Z,24
2022-12-09T11:27:59.055Z,24
2022-12-09T11:28:58.199Z,24
2022-12-09T11:29:57.713Z,24
2022-12-09T11:31:38.937Z,24
2022-12-09T11:31:58.428Z,20
2022-12-09T11:32:58.687Z,24
2022-12-09T11:33:59.361Z,24
2022-12-09T11:34:58.375Z,20
2022-12-09T11:35:58.309Z,20
2022-12-09T11:36:56.815Z,24
2022-12-09T11:37:56.834Z,24
2022-12-09T11:38:56.851Z,24
2022-12-09T11:39:57.235Z,24
2022-12-09T11:40:56.925Z,20
2022-12-09T11:41:57.158Z,24
2022-12-09T11:42:57.156Z,24
2022-12-09T11:43:56.830Z,24
2022-12-09T11:44:57.011Z,24
2022-12-09T11:45:56.932Z,24
2022-12-09T11:46:57.132Z,28
2022-12-09T11:48:45.916Z,28
2022-12-09T11:48:56.719Z,28
2022-12-09T11:49:57.840Z,28
2022-12-09T11:50:57.002Z,28
2022-12-09T11:51:57.024Z,28
2022-12-09T11:52:57.037Z,28
2022-12-09T11:54:03.932Z,32
2022-12-09T11:54:57.072Z,28
2022-12-09T11:55:56.867Z,28
2022-12-09T11:56:57.400Z,28
2022-12-09T11:57:57.156Z,32
2022-12-09T11:58:57.428Z,32
2022-12-09T11:59:57.392Z,32
2022-12-09T12:00:57.155Z,32
2022-12-09T12:01:57.417Z,32
2022-12-09T12:02:57.677Z,32
2022-12-09T12:03:57.448Z,36
2022-12-09T12:04:57.208Z,32
2022-12-09T12:05:56.962Z,32
2022-12-09T12:06:56.981Z,32
2022-12-09T12:07:57.903Z,32
2022-12-09T12:08:58.041Z,32
2022-12-09T12:09:57.535Z,32
2022-12-09T12:10:57.289Z,32
2022-12-09T12:11:57.815Z,28
2022-12-09T12:12:57.604Z,32
2022-12-09T12:13:57.102Z,28
2022-12-09T12:14:57.604Z,24
2022-12-09T12:15:57.365Z,28
2022-12-09T12:16:57.239Z,28
2022-12-09T12:17:57.559Z,32
2022-12-09T12:18:57.142Z,28
2022-12-09T12:19:57.409Z,28
2022-12-09T12:20:57.447Z,28
2022-12-09T12:21:57.453Z,28
2022-12-09T12:23:01.860Z,28
2022-12-09T12:23:57.218Z,28
2022-12-09T12:24:57.509Z,28
2022-12-09T12:25:57.816Z,28
2022-12-09T12:26:57.256Z,28
2022-12-09T12:27:57.850Z,28
2022-12-09T12:29:11.736Z,32
2022-12-09T12:29:57.581Z,28
2022-12-09T12:30:57.861Z,32
2022-12-09T12:31:57.845Z,32
2022-12-09T12:34:25.777Z,32
2022-12-09T12:34:43.991Z,28
2022-12-09T12:35:36.781Z,28
2022-12-09T12:36:36.073Z,28
2022-12-09T12:37:35.560Z,32
2022-12-09T12:38:35.322Z,32
2022-12-09T12:39:36.124Z,28
2022-12-09T12:40:36.143Z,28
2022-12-09T12:41:36.145Z,28
2022-12-09T12:42:35.897Z,24
2022-12-09T12:43:36.335Z,28
2022-12-09T12:44:36.347Z,28
2022-12-09T12:45:36.540Z,24
2022-12-09T12:46:36.443Z,24
2022-12-09T12:47:35.728Z,24
2022-12-09T12:48:36.256Z,24
2022-12-09T12:49:35.744Z,24
2022-12-09T12:50:36.436Z,20
2022-12-09T12:51:36.021Z,20
2022-12-09T12:53:06.029Z,16
2022-12-09T12:53:36.313Z,16
2022-12-09T12:54:36.336Z,20
2022-12-09T12:55:36.098Z,16
2022-12-09T12:56:36.114Z,16
2022-12-09T12:57:36.379Z,16
2022-12-09T12:58:35.599Z,16
2022-12-09T12:59:36.179Z,16
2022-12-09T13:00:36.182Z,16
2022-12-09T13:01:36.792Z,16
2022-12-09T13:02:36.653Z,16
2022-12-09T13:03:35.938Z,16
2022-12-09T13:04:36.487Z,12
2022-12-09T13:05:36.486Z,12
2022-12-09T13:06:36.240Z,12
2022-12-09T13:07:36.000Z,12
2022-12-09T13:08:36.540Z,12
2022-12-09T13:09:36.270Z,12
2022-12-09T13:10:36.562Z,12
2022-12-09T13:11:36.328Z,12
2022-12-09T13:12:36.581Z,16
2022-12-09T13:13:36.351Z,16
2022-12-09T13:14:36.358Z,16
2022-12-09T13:15:36.840Z,12
2022-12-09T13:16:36.525Z,12
2022-12-09T13:17:36.690Z,12
2022-12-09T13:18:36.410Z,12
2022-12-09T13:19:36.685Z,12
2022-12-09T13:20:36.698Z,12
2022-12-09T13:21:36.452Z,16
2022-12-09T13:22:36.488Z,12
2022-12-09T13:23:36.742Z,12
2022-12-09T13:24:36.759Z,16
2022-12-09T13:25:36.795Z,12
2022-12-09T13:26:36.536Z,12
2022-12-09T13:27:36.790Z,12
2022-12-09T13:28:36.028Z,12
2022-12-09T13:29:36.321Z,8
2022-12-09T13:30:37.006Z,12
2022-12-09T13:31:37.042Z,12
2022-12-09T13:32:36.894Z,12
2022-12-09T13:33:36.897Z,8
2022-12-09T13:34:36.641Z,8
2022-12-09T13:35:36.916Z,8
2022-12-09T13:36:42.819Z,8
2022-12-09T13:37:36.947Z,8
2022-12-09T13:38:36.697Z,8
2022-12-09T13:39:36.963Z,8
2022-12-09T13:40:36.980Z,8
2022-12-09T13:41:36.997Z,8
2022-12-09T13:42:37.537Z,8
2022-12-09T13:43:36.760Z,8
2022-12-09T13:44:37.059Z,4
2022-12-09T13:45:36.532Z,4
2022-12-09T13:46:37.289Z,8
2022-12-09T13:47:36.895Z,8
2022-12-09T13:48:36.866Z,8
2022-12-09T13:49:37.148Z,8
2022-12-09T13:50:37.422Z,8
2022-12-09T13:51:37.164Z,8
2022-12-09T13:52:36.891Z,8
2022-12-09T13:53:41.304Z,8
2022-12-09T13:54:36.930Z,8
2022-12-09T13:55:37.204Z,8
2022-12-09T13:56:37.196Z,8
2022-12-09T13:57:37.219Z,8
2022-12-09T13:58:37.257Z,8
2022-12-09T13:59:36.993Z,8
2022-12-09T14:00:37.004Z,8
2022-12-09T14:01:37.025Z,8
2022-12-09T14:02:37.619Z,8
2022-12-09T14:03:37.746Z,8
2022-12-09T14:04:37.089Z,4
2022-12-09T14:05:37.121Z,4
2022-12-09T14:06:37.394Z,4
2022-12-09T14:07:37.360Z,4
2022-12-09T14:08:36.949Z,8
2022-12-09T14:09:37.394Z,8
2022-12-09T14:10:37.150Z,8
2022-12-09T14:11:37.427Z,4
2022-12-09T14:12:44.318Z,4
2022-12-09T14:13:37.450Z,4
2022-12-09T14:14:37.465Z,4
2022-12-09T14:15:37.810Z,4
2022-12-09T14:16:37.490Z,4
2022-12-09T14:17:37.240Z,4
2022-12-09T14:18:40.019Z,8
2022-12-09T14:19:37.588Z,8
2022-12-09T14:20:37.578Z,4
2022-12-09T14:21:37.608Z,4
2022-12-09T14:22:37.071Z,4
2022-12-09T14:23:37.587Z,4
2022-12-09T14:24:37.368Z,8
2022-12-09T14:25:37.361Z,8
2022-12-09T14:26:37.635Z,8
2022-12-09T14:27:37.654Z,4
2022-12-09T14:28:37.410Z,4
2022-12-09T14:29:37.418Z,4
2022-12-09T14:30:37.171Z,4
2022-12-09T14:31:37.837Z,4
2022-12-09T14:32:37.873Z,4
2022-12-09T14:33:37.481Z,4
2022-12-09T14:34:37.228Z,4
2022-12-09T14:35:37.544Z,4
2022-12-09T14:36:37.799Z,0